Tyne Valley, Canada
Current Conditions -  °F | °C
As of 10:00 AM on Saturday 25 Oct 2014 (Local Time) from CYYG Reporting Station
Drizzle Drizzle  
Wind Chill: 43°   Ceiling: 400
Heat Index: 48°   Visibility: 2.5mi
Dew Point: 48°   Wind: 13mph
Humidity: 100%   Direction: 10°N
Pressure: 29.45"   Gusts: 18mph
Location:  46.57°N, 63.93°W
Report Text: CYYG 251300Z 01011G16KT 2 1/2SM -DZ BR OVC004 09/09 A2945 RMK SF8 SLP975
Loading
Personal Weather Stations






























Interactive Weather Map New forecast layout! Learn more

10-Day Weather Forecast

Advertisements
Track Severe Weather on mobile